Time;durP1;ratioP1;P1;durP2;ratioP2;P2;SDS_P1;SDS_P2;PMS_P1;PMS_P2;Temp;Humidity;BMP_temperature;BMP_pressure;BME280_temperature;BME280_humidity;BME280_pressure;Samples;Min_cycle;Max_cycle;Signal;HPM_P1;HPM_P2
2021/03/31 00:08:58;;;;;;;41.67;30.83;;;;;;;5.35;81.48;100584.15;471295;1170;114491;-76
2021/03/31 00:19:02;;;;;;;45.73;33.33;;;;;;;5.30;80.80;100578.19;471300;1169;114679;-71
2021/03/31 00:29:07;;;;;;;42.27;31.43;;;;;;;5.21;80.71;100570.64;471397;1170;114493;-69
2021/03/31 00:39:11;;;;;;;41.07;30.70;;;;;;;5.10;80.67;100563.09;471470;1170;114051;-69
2021/03/31 00:49:14;;;;;;;49.00;34.27;;;;;;;5.05;81.31;100563.20;471285;1169;114027;-68
2021/03/31 00:59:18;;;;;;;42.27;31.27;;;;;;;4.96;81.06;100563.43;471108;1169;114440;-69
2021/03/31 01:09:22;;;;;;;49.07;34.33;;;;;;;4.81;80.67;100551.69;471335;1169;114340;-69
2021/03/31 01:19:51;;;;;;;52.40;34.47;;;;;;;4.70;81.04;100536.31;471475;1170;114450;-70
2021/03/31 01:30:19;;;;;;;46.07;33.80;;;;;;;4.85;82.26;100542.89;471517;1169;114774;-68
2021/03/31 01:40:26;;;;;;;50.37;35.03;;;;;;;4.68;81.27;100532.91;471357;1170;114412;-67
2021/03/31 01:50:32;;;;;;;45.28;34.55;;;;;;;4.55;81.36;100533.20;471571;1170;114325;-68
2021/03/31 02:00:37;;;;;;;42.50;32.00;;;;;;;4.38;80.95;100515.39;471757;1170;114346;-70
2021/03/31 02:10:42;;;;;;;43.10;32.55;;;;;;;4.30;81.01;100517.31;472053;1170;114575;-70
2021/03/31 02:20:47;;;;;;;45.55;32.95;;;;;;;4.20;81.44;100525.31;471393;1169;114560;-68
2021/03/31 02:30:50;;;;;;;47.30;32.40;;;;;;;4.06;81.05;100515.25;471951;1170;113999;-69
2021/03/31 02:40:56;;;;;;;49.70;32.80;;;;;;;4.23;82.45;100513.16;471497;1170;114620;-69
2021/03/31 02:51:00;;;;;;;50.37;32.67;;;;;;;4.14;81.23;100503.80;471476;1169;114357;-69
2021/03/31 03:01:04;;;;;;;47.93;34.17;;;;;;;4.06;81.43;100504.85;471491;1170;114597;-69
2021/03/31 03:11:09;;;;;;;53.37;32.77;;;;;;;4.16;81.14;100509.85;471373;1170;114292;-68
2021/03/31 03:21:15;;;;;;;78.95;42.25;;;;;;;4.27;81.51;100504.39;471541;1168;114131;-69
2021/03/31 03:31:19;;;;;;;77.47;42.70;;;;;;;4.25;81.77;100499.22;471528;1170;114519;-70
2021/03/31 03:41:23;;;;;;;71.43;42.03;;;;;;;4.33;83.06;100484.30;471374;1170;114082;-70
2021/03/31 03:51:28;;;;;;;71.20;42.30;;;;;;;4.35;82.81;100485.11;471475;1170;114386;-69
2021/03/31 04:01:35;;;;;;;67.23;38.57;;;;;;;4.31;82.16;100480.89;472010;1168;114146;-69
2021/03/31 04:11:42;;;;;;;60.45;38.58;;;;;;;4.28;82.60;100474.89;471269;1168;114513;-69
2021/03/31 04:21:46;;;;;;;75.20;42.63;;;;;;;4.29;82.61;100469.67;471612;1171;114681;-69
2021/03/31 04:31:50;;;;;;;72.80;45.60;;;;;;;4.29;82.78;100471.41;471501;1169;114645;-70
2021/03/31 04:41:54;;;;;;;71.25;44.15;;;;;;;4.42;82.68;100475.41;471821;1169;114418;-69
2021/03/31 04:51:58;;;;;;;67.57;42.67;;;;;;;4.68;82.81;100473.06;472090;1170;114006;-70
2021/03/31 05:02:03;;;;;;;66.45;41.75;;;;;;;4.98;82.42;100470.57;471923;1162;176804;-65
2021/03/31 05:12:09;;;;;;;71.70;43.13;;;;;;;5.43;82.09;100472.80;471275;1170;115379;-69
2021/03/31 05:22:13;;;;;;;65.30;43.10;;;;;;;6.09;81.64;100473.49;471526;1171;114465;-70
2021/03/31 05:32:16;;;;;;;65.60;41.57;;;;;;;6.99;81.65;100483.61;471187;1171;114102;-69
2021/03/31 05:42:20;;;;;;;57.83;38.37;;;;;;;8.50;80.22;100475.35;471195;1168;113993;-67
2021/03/31 05:52:24;;;;;;;52.75;39.65;;;;;;;10.51;77.29;100485.63;471673;1170;114447;-68
2021/03/31 06:02:28;;;;;;;52.95;42.20;;;;;;;15.15;75.83;100482.32;471608;1168;114711;-70
2021/03/31 06:12:34;;;;;;;42.57;34.83;;;;;;;19.44;67.80;100473.98;471354;1168;114889;-70
2021/03/31 06:22:53;;;;;;;39.45;35.00;;;;;;;21.38;64.37;100486.73;471443;1171;114831;-70
2021/03/31 06:32:56;;;;;;;37.27;33.40;;;;;;;29.30;58.13;100465.70;471302;1170;114473;-70
2021/03/31 06:43:13;;;;;;;36.00;32.30;;;;;;;32.70;50.52;100459.94;471278;1168;114469;-70
2021/03/31 06:53:26;;;;;;;36.23;32.53;;;;;;;34.99;44.62;100463.19;471877;1170;115417;-71
2021/03/31 07:03:31;;;;;;;39.43;35.30;;;;;;;37.18;40.87;100455.70;471656;1170;114686;-63
2021/03/31 07:13:37;;;;;;;31.70;28.30;;;;;;;39.28;36.59;100450.42;470926;1171;114714;-64
2021/03/31 07:23:42;;;;;;;36.40;31.00;;;;;;;40.44;33.39;100445.56;461121;1170;20001854;-65
2021/03/31 07:33:51;;;;;;;31.90;27.00;;;;;;;41.38;30.50;100440.53;471465;1169;115128;-63
2021/03/31 07:43:58;;;;;;;27.00;23.95;;;;;;;41.82;29.41;100433.33;471684;1168;114386;-61
2021/03/31 07:54:04;;;;;;;22.50;20.15;;;;;;;40.25;28.61;100433.50;471257;1170;114803;-63
2021/03/31 08:04:09;;;;;;;24.57;18.53;;;;;;;40.93;27.11;100418.47;470733;1169;114658;-66
2021/03/31 08:14:15;;;;;;;29.05;21.65;;;;;;;39.21;26.86;100408.69;471351;1170;114417;-61
2021/03/31 08:24:39;;;;;;;20.85;18.40;;;;;;;37.76;27.20;100411.39;472959;1170;114471;-61
2021/03/31 08:34:44;;;;;;;24.40;19.80;;;;;;;36.12;28.22;100401.69;463414;1169;10001765;-73
2021/03/31 08:44:53;;;;;;;22.25;18.70;;;;;;;35.90;27.98;100407.06;471469;1170;115677;-70
2021/03/31 08:54:56;;;;;;;16.30;14.83;;;;;;;32.48;29.27;100399.75;471638;1169;115218;-69
2021/03/31 09:05:02;;;;;;;12.93;11.57;;;;;;;29.75;31.19;100400.33;471578;1170;115304;-68
2021/03/31 09:15:08;;;;;;;17.63;13.50;;;;;;;27.76;33.08;100385.18;471549;1170;115484;-68
2021/03/31 09:25:15;;;;;;;10.90;9.55;;;;;;;26.63;34.60;100383.59;471446;1170;114608;-68
2021/03/31 09:35:38;;;;;;;15.25;8.85;;;;;;;25.39;35.92;100367.38;471385;1171;114293;-67
2021/03/31 09:45:45;;;;;;;14.25;9.55;;;;;;;24.73;37.34;100365.80;470916;1171;114738;-67
2021/03/31 09:55:51;;;;;;;13.98;9.83;;;;;;;24.27;38.09;100352.16;471389;1168;114708;-66
2021/03/31 10:05:55;;;;;;;15.13;9.67;;;;;;;23.55;38.81;100337.53;471429;1169;115080;-67
2021/03/31 10:16:01;;;;;;;12.50;10.65;;;;;;;22.73;40.16;100338.92;471450;1169;114839;-66
2021/03/31 10:26:19;;;;;;;16.90;10.10;;;;;;;22.09;41.28;100329.30;471481;1169;114681;-67
2021/03/31 10:36:51;;;;;;;15.27;11.20;;;;;;;21.56;42.37;100319.31;471353;1171;114885;-72
2021/03/31 10:47:07;;;;;;;17.23;10.43;;;;;;;21.49;43.10;100304.88;471530;1170;114462;-69
2021/03/31 10:57:12;;;;;;;14.57;9.40;;;;;;;21.21;43.20;100296.94;471818;1168;114754;-67
2021/03/31 11:07:17;;;;;;;9.50;6.63;;;;;;;21.02;43.29;100275.69;471695;1169;114704;-73
2021/03/31 11:17:27;;;;;;;14.93;7.83;;;;;;;20.77;43.75;100270.04;472064;1169;114048;-70
2021/03/31 11:27:30;;;;;;;14.40;8.30;;;;;;;20.64;44.64;100252.55;471435;1170;115148;-71
2021/03/31 11:37:36;;;;;;;13.63;8.87;;;;;;;20.62;44.45;100251.02;471451;1169;114687;-73
2021/03/31 11:47:40;;;;;;;21.07;10.50;;;;;;;20.67;44.70;100243.42;471589;1169;114978;-70
2021/03/31 11:57:43;;;;;;;10.20;9.10;;;;;;;20.37;44.55;100226.70;471509;1169;115071;-64
2021/03/31 12:07:47;;;;;;;20.70;11.60;;;;;;;20.53;44.89;100213.55;471320;1170;114748;-70
2021/03/31 12:17:51;;;;;;;11.67;9.83;;;;;;;20.52;44.87;100190.54;472447;1169;114652;-68
2021/03/31 12:27:57;;;;;;;10.23;5.33;;;;;;;20.45;43.63;100181.47;472570;1170;114501;-62
2021/03/31 12:38:01;;;;;;;8.53;4.43;;;;;;;20.18;42.80;100176.97;471946;1170;114641;-63
2021/03/31 12:48:07;;;;;;;9.37;4.67;;;;;;;20.08;42.41;100167.17;471440;1169;114315;-66
2021/03/31 12:58:14;;;;;;;6.17;4.13;;;;;;;20.11;40.95;100156.21;471525;1170;114807;-65
2021/03/31 13:08:18;;;;;;;7.10;4.73;;;;;;;19.98;41.08;100145.91;472446;1167;114052;-63
2021/03/31 13:29:38;;;;;;;11.45;5.45;;;;;;;19.91;40.50;100127.92;471270;1168;114158;-72
2021/03/31 13:39:48;;;;;;;12.87;5.87;;;;;;;19.97;40.67;100108.73;471435;1169;114589;-67
2021/03/31 13:49:55;;;;;;;9.13;5.00;;;;;;;19.99;39.28;100099.61;471265;1170;114252;-61
2021/03/31 13:59:59;;;;;;;9.37;5.97;;;;;;;20.02;39.98;100087.78;470890;1168;114098;-62
2021/03/31 14:10:05;;;;;;;14.30;6.50;;;;;;;20.07;39.29;100077.54;471805;1169;115688;-62
2021/03/31 14:20:29;;;;;;;11.65;6.05;;;;;;;20.09;39.43;100058.74;471644;1170;114199;-62
2021/03/31 14:30:33;;;;;;;8.30;5.00;;;;;;;20.04;39.81;100051.19;471730;1169;114250;-61
2021/03/31 14:40:56;;;;;;;12.33;6.17;;;;;;;20.00;40.01;100037.31;471400;1167;114062;-62
2021/03/31 14:51:23;;;;;;;9.90;6.87;;;;;;;19.93;40.32;100025.56;471625;1169;115312;-62
2021/03/31 15:01:27;;;;;;;7.30;6.57;;;;;;;19.82;41.02;100018.59;471548;1169;114409;-68
2021/03/31 15:11:30;;;;;;;8.40;5.67;;;;;;;19.69;41.18;99996.79;471574;1168;115125;-73
2021/03/31 15:21:38;;;;;;;8.70;6.90;;;;;;;19.49;41.66;99983.55;471638;1168;114352;-72
2021/03/31 15:32:02;;;;;;;11.90;6.20;;;;;;;19.34;41.81;99977.05;471631;1168;114386;-63
2021/03/31 15:42:12;;;;;;;7.93;5.50;;;;;;;19.92;40.89;99961.74;472266;1170;114139;-67
2021/03/31 15:52:21;;;;;;;8.40;6.10;;;;;;;19.39;40.80;99953.47;471470;1169;114288;-67
2021/03/31 16:02:30;;;;;;;10.97;6.10;;;;;;;19.02;41.81;99950.66;455542;1168;20001855;-69
2021/03/31 16:12:38;;;;;;;13.90;7.30;;;;;;;18.75;42.01;99943.41;471501;1169;114295;-69
2021/03/31 16:22:48;;;;;;;12.10;8.00;;;;;;;18.48;42.47;99948.48;470908;1169;114537;-71
2021/03/31 16:32:57;;;;;;;11.67;7.23;;;;;;;18.16;42.73;99930.99;471425;1170;114704;-66
2021/03/31 16:43:05;;;;;;;13.90;8.40;;;;;;;17.77;43.26;99921.13;471390;1168;115407;-70
2021/03/31 16:53:14;;;;;;;14.23;8.27;;;;;;;17.37;44.13;99911.41;471468;1168;113981;-70
2021/03/31 17:03:23;;;;;;;14.13;9.10;;;;;;;16.91;44.77;99909.09;463848;1170;10003626;-67
2021/03/31 17:13:31;;;;;;;19.30;6.47;;;;;;;16.42;45.72;99895.53;472106;1168;114798;-71
2021/03/31 17:23:40;;;;;;;18.67;8.00;;;;;;;15.90;46.66;99892.75;471394;1170;114399;-67
2021/03/31 17:33:49;;;;;;;15.80;9.27;;;;;;;15.39;48.41;99893.19;471889;1170;114439;-75
2021/03/31 17:43:58;;;;;;;10.53;8.00;;;;;;;15.04;48.95;99893.34;471275;1169;114637;-64
2021/03/31 17:54:08;;;;;;;14.70;8.40;;;;;;;14.77;50.33;99891.86;471960;1168;114040;-63
2021/03/31 18:04:17;;;;;;;14.30;7.25;;;;;;;14.51;51.50;99892.89;471594;1169;113987;-65
2021/03/31 18:14:27;;;;;;;12.30;7.37;;;;;;;14.22;52.90;99895.08;471532;1167;113975;-66
2021/03/31 18:24:36;;;;;;;25.07;8.37;;;;;;;13.89;53.37;99893.98;472306;1168;114370;-65
2021/03/31 18:34:45;;;;;;;22.03;8.73;;;;;;;13.50;54.68;99880.92;471854;1168;113954;-66
2021/03/31 18:44:54;;;;;;;44.67;10.37;;;;;;;13.13;55.59;99881.70;471482;1170;114390;-65
2021/03/31 18:55:04;;;;;;;30.97;12.30;;;;;;;12.73;56.56;99878.26;470772;1171;114627;-64
2021/03/31 19:05:13;;;;;;;25.93;11.70;;;;;;;12.41;57.34;99878.65;471358;1170;114562;-66
2021/03/31 19:15:23;;;;;;;49.50;17.13;;;;;;;12.07;58.35;99869.54;471638;1170;115111;-64
2021/03/31 19:25:32;;;;;;;40.10;18.00;;;;;;;11.80;58.99;99860.68;471425;1168;114580;-65
2021/03/31 19:35:40;;;;;;;36.73;15.70;;;;;;;11.53;59.74;99848.34;471137;1171;114930;-65
2021/03/31 19:45:45;;;;;;;48.63;23.93;;;;;;;11.40;60.04;99839.56;471566;1168;114885;-64
2021/03/31 19:55:55;;;;;;;42.05;19.15;;;;;;;11.26;60.69;99833.39;473160;1170;114564;-67
2021/03/31 20:06:06;;;;;;;42.53;21.07;;;;;;;11.00;61.00;99820.11;471595;1170;114766;-66
2021/03/31 20:16:15;;;;;;;50.05;25.65;;;;;;;10.77;61.44;99824.15;471903;1170;115063;-65
2021/03/31 20:26:23;;;;;;;38.97;22.47;;;;;;;10.54;61.87;99810.63;472020;1169;114956;-65
2021/03/31 20:36:32;;;;;;;35.70;18.50;;;;;;;10.27;62.42;99792.95;471745;1169;114386;-66
2021/03/31 20:46:41;;;;;;;35.78;19.65;;;;;;;10.04;63.13;99802.17;471459;1168;114651;-64
2021/03/31 20:56:49;;;;;;;58.60;23.70;;;;;;;9.77;63.66;99789.73;471387;1169;114652;-66
2021/03/31 21:07:02;;;;;;;37.23;22.80;;;;;;;9.52;63.74;99794.63;472127;1168;114713;-63
2021/03/31 21:17:11;;;;;;;39.80;24.67;;;;;;;9.33;64.86;99788.72;471457;1169;114387;-63
2021/03/31 21:27:20;;;;;;;36.80;23.25;;;;;;;9.17;65.07;99784.30;471439;1168;114394;-63
2021/03/31 21:37:29;;;;;;;52.70;28.13;;;;;;;9.00;65.77;99773.92;471438;1168;115799;-62
2021/03/31 21:47:38;;;;;;;62.40;35.53;;;;;;;8.87;66.18;99771.97;471145;1171;116924;-63
2021/03/31 21:57:42;;;;;;;89.67;41.30;;;;;;;8.68;66.78;99769.51;470995;1169;114055;-62
2021/03/31 22:07:46;;;;;;;72.77;36.50;;;;;;;8.48;66.69;99765.27;471747;1171;115236;-62
2021/03/31 22:17:51;;;;;;;61.17;35.13;;;;;;;8.33;66.81;99753.86;471519;1170;114372;-62
2021/03/31 22:27:56;;;;;;;61.23;33.80;;;;;;;8.17;67.16;99752.02;471295;1170;114407;-63
2021/03/31 22:38:00;;;;;;;69.43;37.77;;;;;;;8.00;67.49;99755.50;471293;1170;114429;-62
2021/03/31 22:48:07;;;;;;;67.67;42.37;;;;;;;7.89;67.80;99740.37;471495;1170;114412;-62
2021/03/31 22:58:11;;;;;;;74.67;51.20;;;;;;;7.77;67.97;99731.36;471640;1169;114945;-62
2021/03/31 23:08:15;;;;;;;77.87;50.47;;;;;;;7.68;68.11;99724.00;471270;1170;115215;-63
2021/03/31 23:18:19;;;;;;;78.27;48.60;;;;;;;7.55;68.44;99711.52;471075;1168;114243;-62
2021/03/31 23:28:23;;;;;;;91.80;51.60;;;;;;;7.47;69.14;99691.92;471226;1169;114197;-63
2021/03/31 23:38:27;;;;;;;78.60;51.73;;;;;;;7.59;70.40;99674.80;471998;1170;114213;-61
2021/03/31 23:48:31;;;;;;;83.40;52.75;;;;;;;7.43;69.73;99654.65;471936;1168;114059;-65
2021/03/31 23:58:35;;;;;;;84.35;54.55;;;;;;;7.23;69.84;99650.42;471366;1170;114006;-63
